PWSweather.com
Personal Weather Stations
Station Observations
AC5CV
Greenleaf Peninsula, Waco, TX 76710

Greenleaf PeninsulaWaco, TX 76710

Lat: 31.565, Lon: -97.198

Elevation: 570

Station Type: Ambient WS2080

http://johnchamber.dyndns.info/

Latest ConditionsUpdated 9:00:00 AM CDT Monday, Jun 26, 2017
Currently Today's Max Today's Min Today's Average
Temperature 75.2°F24.0°C 77.2°F25.1°C 74.1°F23.4°C 75.5°F24.2°C
Dew Point 72.4°F22.4°C 73.6°F23.1°C 70.9°F21.6°C 72.6°F22.6°C
Winds 1.4 mph SSE2.3 kmh SSE 4.4 mph E7.1 kmh E - 1.3 mph 2.1 kmh
Wind Gusts 4.9 mph7.9 kmh 9.8 mph15.8 kmh - -
Humidity 91% 95% 81% 91%
Pressure 29.55 in1000.7 mb 29.55 in1000.7 mb 29.51 in999.3 mb -
Precipitation - 0.01 in0.3 mm - -
Hour Temp Dew Point Humidity Winds Wind Gusts Pressure Precip Precip Rate Daily Precip Total
09:00 AM 75.2°F24.0°C 72.4°F22.4°C 91% 1.4 mph SSE2.3 kmh SSE 4.9 mph7.9 kmh 29.55 in1000.7 mb 0.00 in0.0 mm 0.00 in0.0 mm 0.01 in0.3 mm
08:55 AM 75.2°F24.0°C 72.4°F22.4°C 91% 2.3 mph SSE3.7 kmh SSE 4.9 mph7.9 kmh 29.55 in1000.7 mb 0.00 in0.0 mm 0.00 in0.0 mm 0.01 in0.3 mm
08:50 AM 75.0°F23.9°C 72.2°F22.3°C 91% 1.7 mph SE2.7 kmh SE 4.9 mph7.9 kmh 29.55 in1000.7 mb 0.00 in0.0 mm 0.00 in0.0 mm 0.01 in0.3 mm
08:45 AM 74.8°F23.8°C 72.0°F22.2°C 91% 2.7 mph E4.3 kmh E 4.9 mph7.9 kmh 29.55 in1000.7 mb 0.00 in0.0 mm 0.00 in0.0 mm 0.01 in0.3 mm
08:40 AM 74.8°F23.8°C 72.0°F22.2°C 91% 0.4 mph NE0.6 kmh NE 2.5 mph4.0 kmh 29.55 in1000.7 mb 0.00 in0.0 mm 0.00 in0.0 mm 0.01 in0.3 mm
08:35 AM 74.8°F23.8°C 72.1°F22.3°C 91% 1.3 mph SE2.1 kmh SE 4.9 mph7.9 kmh 29.54 in1000.3 mb 0.00 in0.0 mm 0.00 in0.0 mm 0.01 in0.3 mm
08:20 AM 74.8°F23.8°C 72.0°F22.2°C 91% 1.6 mph E2.6 kmh E 4.9 mph7.9 kmh 29.54 in1000.3 mb 0.00 in0.0 mm 0.00 in0.0 mm 0.01 in0.3 mm
08:15 AM 74.8°F23.8°C 72.3°F22.4°C 92% 2.3 mph SE3.7 kmh SE 4.9 mph7.9 kmh 29.54 in1000.3 mb 0.00 in0.0 mm 0.00 in0.0 mm 0.01 in0.3 mm
08:10 AM 74.8°F23.8°C 72.3°F22.4°C 92% 2.9 mph E4.7 kmh E 4.9 mph7.9 kmh 29.53 in1000.0 mb 0.00 in0.0 mm 0.00 in0.0 mm 0.01 in0.3 mm
08:05 AM 74.8°F23.8°C 72.3°F22.4°C 92% 1.5 mph ESE2.4 kmh ESE 4.9 mph7.9 kmh 29.53 in1000.0 mb 0.00 in0.0 mm 0.00 in0.0 mm 0.01 in0.3 mm
08:00 AM 74.7°F23.7°C 72.5°F22.5°C 93% 1.8 mph E2.9 kmh E 4.9 mph7.9 kmh 29.53 in1000.0 mb 0.00 in0.0 mm 0.00 in0.0 mm 0.01 in0.3 mm
07:55 AM 74.7°F23.7°C 73.0°F22.8°C 94% 1.9 mph E3.1 kmh E 4.9 mph7.9 kmh 29.53 in1000.0 mb 0.00 in0.0 mm 0.00 in0.0 mm 0.01 in0.3 mm
07:50 AM 74.5°F23.6°C 73.0°F22.8°C 95% 1.8 mph ESE2.9 kmh ESE 2.5 mph4.0 kmh 29.52 in999.7 mb 0.00 in0.0 mm 0.00 in0.0 mm 0.01 in0.3 mm
07:45 AM 74.5°F23.6°C 73.0°F22.8°C 95% 1.7 mph SE2.7 kmh SE 4.9 mph7.9 kmh 29.52 in999.7 mb 0.00 in0.0 mm 0.00 in0.0 mm 0.01 in0.3 mm
07:40 AM 74.5°F23.6°C 73.0°F22.8°C 95% 1.8 mph ESE2.9 kmh ESE 4.9 mph7.9 kmh 29.53 in1000.0 mb 0.00 in0.0 mm 0.00 in0.0 mm 0.01 in0.3 mm
07:35 AM 74.5°F23.6°C 73.0°F22.8°C 95% 1.7 mph E2.7 kmh E 4.9 mph7.9 kmh 29.52 in999.7 mb 0.00 in0.0 mm 0.00 in0.0 mm 0.01 in0.3 mm
07:30 AM 74.4°F23.6°C 72.9°F22.7°C 95% 1.3 mph E2.1 kmh E 4.9 mph7.9 kmh 29.53 in1000.0 mb 0.00 in0.0 mm 0.00 in0.0 mm 0.01 in0.3 mm
07:25 AM 74.2°F23.4°C 72.7°F22.6°C 95% 1.7 mph E2.7 kmh E 4.9 mph7.9 kmh 29.53 in1000.0 mb 0.00 in0.0 mm 0.00 in0.0 mm 0.01 in0.3 mm
07:20 AM 74.2°F23.4°C 72.6°F22.6°C 95% 2.4 mph E3.9 kmh E 4.9 mph7.9 kmh 29.52 in999.7 mb 0.01 in0.3 mm 0.00 in0.0 mm 0.01 in0.3 mm
07:15 AM 74.3°F23.5°C 72.8°F22.7°C 95% 1.7 mph E2.7 kmh E 4.9 mph7.9 kmh 29.52 in999.7 mb 0.01 in0.3 mm 0.00 in0.0 mm 0.01 in0.3 mm
07:10 AM 74.2°F23.4°C 72.7°F22.6°C 95% 1.1 mph E1.8 kmh E 2.5 mph4.0 kmh 29.52 in999.7 mb 0.01 in0.3 mm 0.00 in0.0 mm 0.01 in0.3 mm
07:05 AM 74.1°F23.4°C 72.6°F22.6°C 95% 2.2 mph E3.5 kmh E 4.9 mph7.9 kmh 29.52 in999.7 mb 0.01 in0.3 mm 0.00 in0.0 mm 0.01 in0.3 mm
07:00 AM 74.1°F23.4°C 72.6°F22.6°C 95% 2.7 mph ESE4.3 kmh ESE 4.9 mph7.9 kmh 29.52 in999.7 mb 0.01 in0.3 mm 0.00 in0.0 mm 0.01 in0.3 mm
06:55 AM 74.1°F23.4°C 72.6°F22.6°C 95% 1.3 mph ESE2.1 kmh ESE 4.9 mph7.9 kmh 29.52 in999.7 mb 0.01 in0.3 mm 0.00 in0.0 mm 0.01 in0.3 mm
06:50 AM 74.3°F23.5°C 72.8°F22.7°C 95% 2.2 mph SE3.5 kmh SE 4.9 mph7.9 kmh 29.52 in999.7 mb 0.01 in0.3 mm 0.00 in0.0 mm 0.01 in0.3 mm
06:45 AM 74.5°F23.6°C 73.0°F22.8°C 95% 2.1 mph E3.4 kmh E 4.9 mph7.9 kmh 29.52 in999.7 mb 0.01 in0.3 mm 0.00 in0.0 mm 0.01 in0.3 mm
06:40 AM 74.5°F23.6°C 73.0°F22.8°C 95% 1.5 mph E2.4 kmh E 4.9 mph7.9 kmh 29.52 in999.7 mb 0.01 in0.3 mm 0.00 in0.0 mm 0.01 in0.3 mm
06:35 AM 74.5°F23.6°C 73.0°F22.8°C 95% 1.5 mph SE2.4 kmh SE 4.9 mph7.9 kmh 29.52 in999.7 mb 0.01 in0.3 mm 0.00 in0.0 mm 0.01 in0.3 mm
06:30 AM 74.6°F23.7°C 73.0°F22.8°C 95% 1.6 mph SE2.6 kmh SE 4.9 mph7.9 kmh 29.52 in999.7 mb 0.01 in0.3 mm 0.00 in0.0 mm 0.01 in0.3 mm
06:25 AM 74.7°F23.7°C 73.2°F22.9°C 95% 0.9 mph E1.4 kmh E 2.5 mph4.0 kmh 29.52 in999.7 mb 0.01 in0.3 mm 0.12 in3.0 mm 0.01 in0.3 mm
06:20 AM 74.8°F23.8°C 73.3°F22.9°C 95% 0.6 mph E1.0 kmh E 4.9 mph7.9 kmh 29.52 in999.7 mb 0.00 in0.0 mm 0.00 in0.0 mm 0.00 in0.0 mm
06:15 AM 74.8°F23.8°C 73.3°F22.9°C 95% 0.3 mph ESE0.5 kmh ESE 4.9 mph7.9 kmh 29.52 in999.7 mb 0.00 in0.0 mm 0.00 in0.0 mm 0.00 in0.0 mm
06:10 AM 74.8°F23.8°C 73.3°F22.9°C 95% 0.5 mph E0.8 kmh E 2.5 mph4.0 kmh 29.51 in999.3 mb 0.00 in0.0 mm 0.00 in0.0 mm 0.00 in0.0 mm
06:05 AM 75.2°F24.0°C 73.6°F23.1°C 95% 1.8 mph E2.9 kmh E 4.9 mph7.9 kmh 29.51 in999.3 mb 0.00 in0.0 mm 0.00 in0.0 mm 0.00 in0.0 mm
06:00 AM 75.2°F24.0°C 73.3°F22.9°C 94% 2.3 mph ESE3.7 kmh ESE 4.9 mph7.9 kmh 29.51 in999.3 mb 0.00 in0.0 mm 0.00 in0.0 mm 0.00 in0.0 mm
05:55 AM 75.2°F24.0°C 73.0°F22.8°C 93% 3.3 mph E5.3 kmh E 7.4 mph11.9 kmh 29.51 in999.3 mb 0.00 in0.0 mm 0.00 in0.0 mm 0.00 in0.0 mm
05:50 AM 75.3°F24.1°C 73.1°F22.8°C 93% 2.6 mph ESE4.2 kmh ESE 4.9 mph7.9 kmh 29.51 in999.3 mb 0.00 in0.0 mm 0.00 in0.0 mm 0.00 in0.0 mm
05:45 AM 75.4°F24.1°C 73.2°F22.9°C 93% 3.1 mph ESE5.0 kmh ESE 7.4 mph11.9 kmh 29.51 in999.3 mb 0.00 in0.0 mm 0.00 in0.0 mm 0.00 in0.0 mm
05:40 AM 75.4°F24.1°C 73.2°F22.9°C 93% 1.7 mph SE2.7 kmh SE 4.9 mph7.9 kmh 29.51 in999.3 mb 0.00 in0.0 mm 0.00 in0.0 mm 0.00 in0.0 mm
05:35 AM 75.4°F24.1°C 73.2°F22.9°C 93% 1.8 mph SE2.9 kmh SE 4.9 mph7.9 kmh 29.52 in999.7 mb 0.00 in0.0 mm 0.00 in0.0 mm 0.00 in0.0 mm
05:30 AM 75.4°F24.1°C 73.2°F22.9°C 93% Calm Calm -- 29.52 in999.7 mb 0.00 in0.0 mm 0.00 in0.0 mm 0.00 in0.0 mm
05:25 AM 75.4°F24.1°C 73.2°F22.9°C 93% 1.4 mph S2.3 kmh S 4.9 mph7.9 kmh 29.52 in999.7 mb 0.00 in0.0 mm 0.00 in0.0 mm 0.00 in0.0 mm
05:20 AM 75.4°F24.1°C 73.2°F22.9°C 93% 0.7 mph SSE1.1 kmh SSE 4.9 mph7.9 kmh 29.51 in999.3 mb 0.00 in0.0 mm 0.00 in0.0 mm 0.00 in0.0 mm
05:15 AM 75.4°F24.1°C 73.2°F22.9°C 93% 0.6 mph SE1.0 kmh SE 2.5 mph4.0 kmh 29.52 in999.7 mb 0.00 in0.0 mm 0.00 in0.0 mm 0.00 in0.0 mm
05:10 AM 75.4°F24.1°C 73.2°F22.9°C 93% 0.8 mph S1.3 kmh S 2.5 mph4.0 kmh 29.51 in999.3 mb 0.00 in0.0 mm 0.00 in0.0 mm 0.00 in0.0 mm
05:05 AM 75.4°F24.1°C 73.2°F22.9°C 93% 0.1 mph E0.2 kmh E 2.5 mph4.0 kmh 29.52 in999.7 mb 0.00 in0.0 mm 0.00 in0.0 mm 0.00 in0.0 mm
05:00 AM 75.4°F24.1°C 73.2°F22.9°C 93% 0.4 mph E0.6 kmh E 2.5 mph4.0 kmh 29.51 in999.3 mb 0.00 in0.0 mm 0.00 in0.0 mm 0.00 in0.0 mm
04:55 AM 75.4°F24.1°C 73.2°F22.9°C 93% 0.1 mph SE0.2 kmh SE 2.5 mph4.0 kmh 29.51 in999.3 mb 0.00 in0.0 mm 0.00 in0.0 mm 0.00 in0.0 mm
04:50 AM 75.4°F24.1°C 73.2°F22.9°C 93% 0.8 mph SE1.3 kmh SE 2.5 mph4.0 kmh 29.51 in999.3 mb 0.00 in0.0 mm 0.00 in0.0 mm 0.00 in0.0 mm
04:45 AM 75.4°F24.1°C 73.2°F22.9°C 93% 0.8 mph SSE1.3 kmh SSE 4.9 mph7.9 kmh 29.52 in999.7 mb 0.00 in0.0 mm 0.00 in0.0 mm 0.00 in0.0 mm
04:40 AM 75.4°F24.1°C 73.2°F22.9°C 93% 0.4 mph SSE0.6 kmh SSE 2.5 mph4.0 kmh 29.52 in999.7 mb 0.00 in0.0 mm 0.00 in0.0 mm 0.00 in0.0 mm
04:35 AM 75.4°F24.1°C 73.2°F22.9°C 93% 0.6 mph ESE1.0 kmh ESE 4.9 mph7.9 kmh 29.52 in999.7 mb 0.00 in0.0 mm 0.00 in0.0 mm 0.00 in0.0 mm
04:30 AM 75.4°F24.1°C 73.2°F22.9°C 93% 0.5 mph SE0.8 kmh SE 2.5 mph4.0 kmh 29.52 in999.7 mb 0.00 in0.0 mm 0.00 in0.0 mm 0.00 in0.0 mm
04:25 AM 75.4°F24.1°C 73.0°F22.8°C 92% 0.2 mph ENE0.3 kmh ENE 2.5 mph4.0 kmh 29.53 in1000.0 mb 0.00 in0.0 mm 0.00 in0.0 mm 0.00 in0.0 mm
04:20 AM 75.4°F24.1°C 72.9°F22.7°C 92% 0.3 mph NNE0.5 kmh NNE 2.5 mph4.0 kmh 29.52 in999.7 mb 0.00 in0.0 mm 0.00 in0.0 mm 0.00 in0.0 mm
04:15 AM 75.4°F24.1°C 72.9°F22.7°C 92% 0.4 mph NE0.6 kmh NE 2.5 mph4.0 kmh 29.52 in999.7 mb 0.00 in0.0 mm 0.00 in0.0 mm 0.00 in0.0 mm
04:10 AM 75.4°F24.1°C 72.9°F22.7°C 92% 0.2 mph SE0.3 kmh SE 2.5 mph4.0 kmh 29.52 in999.7 mb 0.00 in0.0 mm 0.00 in0.0 mm 0.00 in0.0 mm
04:05 AM 75.4°F24.1°C 72.9°F22.7°C 92% 0.5 mph ENE0.8 kmh ENE 4.9 mph7.9 kmh 29.52 in999.7 mb 0.00 in0.0 mm 0.00 in0.0 mm 0.00 in0.0 mm
04:00 AM 75.4°F24.1°C 72.9°F22.7°C 92% 0.2 mph ESE0.3 kmh ESE 2.5 mph4.0 kmh 29.52 in999.7 mb 0.00 in0.0 mm 0.00 in0.0 mm 0.00 in0.0 mm
03:55 AM 75.4°F24.1°C 72.9°F22.7°C 92% 0.6 mph E1.0 kmh E 2.5 mph4.0 kmh 29.51 in999.3 mb 0.00 in0.0 mm 0.00 in0.0 mm 0.00 in0.0 mm
03:50 AM 75.4°F24.1°C 72.9°F22.7°C 92% 0.7 mph ESE1.1 kmh ESE 2.5 mph4.0 kmh 29.52 in999.7 mb 0.00 in0.0 mm 0.00 in0.0 mm 0.00 in0.0 mm
03:45 AM 75.4°F24.1°C 72.9°F22.7°C 92% 1.8 mph SE2.9 kmh SE 4.9 mph7.9 kmh 29.52 in999.7 mb 0.00 in0.0 mm 0.00 in0.0 mm 0.00 in0.0 mm
03:40 AM 75.4°F24.1°C 72.9°F22.7°C 92% 1.4 mph E2.3 kmh E 2.5 mph4.0 kmh 29.52 in999.7 mb 0.00 in0.0 mm 0.00 in0.0 mm 0.00 in0.0 mm
03:35 AM 75.4°F24.1°C 72.9°F22.7°C 92% 1.4 mph E2.3 kmh E 7.4 mph11.9 kmh 29.52 in999.7 mb 0.00 in0.0 mm 0.00 in0.0 mm 0.00 in0.0 mm
03:30 AM 75.4°F24.1°C 72.9°F22.7°C 92% 0.8 mph E1.3 kmh E 4.9 mph7.9 kmh 29.52 in999.7 mb 0.00 in0.0 mm 0.00 in0.0 mm 0.00 in0.0 mm
03:25 AM 75.2°F24.0°C 72.7°F22.6°C 92% 0.2 mph ENE0.3 kmh ENE 2.5 mph4.0 kmh 29.52 in999.7 mb 0.00 in0.0 mm 0.00 in0.0 mm 0.00 in0.0 mm
03:20 AM 75.2°F24.0°C 72.7°F22.6°C 92% 0.1 mph ENE0.2 kmh ENE 2.5 mph4.0 kmh 29.52 in999.7 mb 0.00 in0.0 mm 0.00 in0.0 mm 0.00 in0.0 mm
03:15 AM 75.2°F24.0°C 72.7°F22.6°C 92% 0.4 mph SE0.6 kmh SE 2.5 mph4.0 kmh 29.53 in1000.0 mb 0.00 in0.0 mm 0.00 in0.0 mm 0.00 in0.0 mm
03:10 AM 75.2°F24.0°C 72.7°F22.6°C 92% 1.4 mph E2.3 kmh E 2.5 mph4.0 kmh 29.53 in1000.0 mb 0.00 in0.0 mm 0.00 in0.0 mm 0.00 in0.0 mm
03:05 AM 75.4°F24.1°C 72.9°F22.7°C 92% 0.9 mph E1.4 kmh E 2.5 mph4.0 kmh 29.53 in1000.0 mb 0.00 in0.0 mm 0.00 in0.0 mm 0.00 in0.0 mm
03:00 AM 75.6°F24.2°C 72.9°F22.7°C 91% Calm Calm -- 29.53 in1000.0 mb 0.00 in0.0 mm 0.00 in0.0 mm 0.00 in0.0 mm
02:55 AM 75.6°F24.2°C 72.8°F22.7°C 91% Calm Calm -- 29.53 in1000.0 mb 0.00 in0.0 mm 0.00 in0.0 mm 0.00 in0.0 mm
02:50 AM 75.6°F24.2°C 72.8°F22.7°C 91% 1.0 mph E1.6 kmh E 4.9 mph7.9 kmh 29.52 in999.7 mb 0.00 in0.0 mm 0.00 in0.0 mm 0.00 in0.0 mm
02:45 AM 75.8°F24.3°C 72.7°F22.6°C 90% 0.3 mph NW0.5 kmh NW 2.5 mph4.0 kmh 29.53 in1000.0 mb 0.00 in0.0 mm 0.00 in0.0 mm 0.00 in0.0 mm
02:40 AM 75.9°F24.4°C 72.7°F22.6°C 90% Calm Calm 2.5 mph4.0 kmh 29.53 in1000.0 mb 0.00 in0.0 mm 0.00 in0.0 mm 0.00 in0.0 mm
02:35 AM 75.9°F24.4°C 72.7°F22.6°C 90% 0.2 mph ENE0.3 kmh ENE 2.5 mph4.0 kmh 29.53 in1000.0 mb 0.00 in0.0 mm 0.00 in0.0 mm 0.00 in0.0 mm
02:30 AM 75.9°F24.4°C 72.7°F22.6°C 90% 0.5 mph NE0.8 kmh NE 2.5 mph4.0 kmh 29.54 in1000.3 mb 0.00 in0.0 mm 0.00 in0.0 mm 0.00 in0.0 mm
02:25 AM 76.1°F24.5°C 72.8°F22.7°C 90% 0.1 mph ENE0.2 kmh ENE 2.5 mph4.0 kmh 29.53 in1000.0 mb 0.00 in0.0 mm 0.00 in0.0 mm 0.00 in0.0 mm
02:20 AM 76.1°F24.5°C 72.6°F22.6°C 89% 0.2 mph ENE0.3 kmh ENE 2.5 mph4.0 kmh 29.53 in1000.0 mb 0.00 in0.0 mm 0.00 in0.0 mm 0.00 in0.0 mm
02:15 AM 76.1°F24.5°C 72.4°F22.4°C 88% Calm Calm -- 29.53 in1000.0 mb 0.00 in0.0 mm 0.00 in0.0 mm 0.00 in0.0 mm
02:10 AM 76.1°F24.5°C 72.3°F22.4°C 88% Calm Calm -- 29.54 in1000.3 mb 0.00 in0.0 mm 0.00 in0.0 mm 0.00 in0.0 mm
02:05 AM 76.2°F24.6°C 72.4°F22.4°C 88% Calm Calm -- 29.53 in1000.0 mb 0.00 in0.0 mm 0.00 in0.0 mm 0.00 in0.0 mm
02:00 AM 76.3°F24.6°C 72.5°F22.5°C 88% Calm Calm -- 29.52 in999.7 mb 0.00 in0.0 mm 0.00 in0.0 mm 0.00 in0.0 mm
01:55 AM 76.3°F24.6°C 72.3°F22.4°C 88% 0.3 mph SE0.5 kmh SE 2.5 mph4.0 kmh 29.52 in999.7 mb 0.00 in0.0 mm 0.00 in0.0 mm 0.00 in0.0 mm
01:50 AM 76.3°F24.6°C 72.1°F22.3°C 87% 0.4 mph ENE0.6 kmh ENE 2.5 mph4.0 kmh 29.52 in999.7 mb 0.00 in0.0 mm 0.00 in0.0 mm 0.00 in0.0 mm
01:45 AM 76.3°F24.6°C 72.1°F22.3°C 87% 0.3 mph SE0.5 kmh SE 2.5 mph4.0 kmh 29.52 in999.7 mb 0.00 in0.0 mm 0.00 in0.0 mm 0.00 in0.0 mm
01:40 AM 76.3°F24.6°C 72.1°F22.3°C 87% 0.1 mph E0.2 kmh E 2.5 mph4.0 kmh 29.52 in999.7 mb 0.00 in0.0 mm 0.00 in0.0 mm 0.00 in0.0 mm
01:35 AM 76.4°F24.7°C 72.1°F22.3°C 86% Calm Calm -- 29.52 in999.7 mb 0.00 in0.0 mm 0.00 in0.0 mm 0.00 in0.0 mm
01:30 AM 76.5°F24.7°C 72.0°F22.2°C 86% 1.2 mph E1.9 kmh E 4.9 mph7.9 kmh 29.52 in999.7 mb 0.00 in0.0 mm 0.00 in0.0 mm 0.00 in0.0 mm
01:25 AM 76.6°F24.8°C 72.1°F22.3°C 86% 0.1 mph E0.2 kmh E 2.5 mph4.0 kmh 29.52 in999.7 mb 0.00 in0.0 mm 0.00 in0.0 mm 0.00 in0.0 mm
01:20 AM 76.8°F24.9°C 71.9°F22.2°C 85% 0.9 mph E1.4 kmh E 2.5 mph4.0 kmh 29.52 in999.7 mb 0.00 in0.0 mm 0.00 in0.0 mm 0.00 in0.0 mm
01:15 AM 76.8°F24.9°C 71.9°F22.2°C 85% 2.9 mph E4.7 kmh E 7.4 mph11.9 kmh 29.52 in999.7 mb 0.00 in0.0 mm 0.00 in0.0 mm 0.00 in0.0 mm
01:10 AM 76.8°F24.9°C 71.8°F22.1°C 85% 2.3 mph E3.7 kmh E 7.4 mph11.9 kmh 29.52 in999.7 mb 0.00 in0.0 mm 0.00 in0.0 mm 0.00 in0.0 mm
01:05 AM 76.9°F24.9°C 71.5°F21.9°C 83% 0.8 mph E1.3 kmh E 4.9 mph7.9 kmh 29.52 in999.7 mb 0.00 in0.0 mm 0.00 in0.0 mm 0.00 in0.0 mm
01:00 AM 77.0°F25.0°C 71.4°F21.9°C 83% 2.8 mph ENE4.5 kmh ENE 4.9 mph7.9 kmh 29.52 in999.7 mb 0.00 in0.0 mm 0.00 in0.0 mm 0.00 in0.0 mm
12:55 AM 77.0°F25.0°C 71.4°F21.9°C 83% 1.3 mph ENE2.1 kmh ENE 4.9 mph7.9 kmh 29.52 in999.7 mb 0.00 in0.0 mm 0.00 in0.0 mm 0.00 in0.0 mm
12:50 AM 77.0°F25.0°C 71.4°F21.9°C 83% 2.0 mph NNE3.2 kmh NNE 4.9 mph7.9 kmh 29.53 in1000.0 mb 0.00 in0.0 mm 0.00 in0.0 mm 0.00 in0.0 mm
12:45 AM 77.0°F25.0°C 71.3°F21.8°C 83% 3.2 mph E5.1 kmh E 7.4 mph11.9 kmh 29.53 in1000.0 mb 0.00 in0.0 mm 0.00 in0.0 mm 0.00 in0.0 mm
12:40 AM 77.0°F25.0°C 71.1°F21.7°C 82% 3.8 mph E6.1 kmh E 9.8 mph15.8 kmh 29.52 in999.7 mb 0.00 in0.0 mm 0.00 in0.0 mm 0.00 in0.0 mm
12:35 AM 77.2°F25.1°C 71.2°F21.8°C 82% 2.8 mph ESE4.5 kmh ESE 7.4 mph11.9 kmh 29.53 in1000.0 mb 0.00 in0.0 mm 0.00 in0.0 mm 0.00 in0.0 mm
12:30 AM 77.2°F25.1°C 71.3°F21.8°C 82% 3.2 mph E5.1 kmh E 7.4 mph11.9 kmh 29.54 in1000.3 mb 0.00 in0.0 mm 0.00 in0.0 mm 0.00 in0.0 mm
12:25 AM 77.1°F25.1°C 71.1°F21.7°C 82% 4.4 mph E7.1 kmh E 9.8 mph15.8 kmh 29.54 in1000.3 mb 0.00 in0.0 mm 0.00 in0.0 mm 0.00 in0.0 mm
12:20 AM 77.2°F25.1°C 71.2°F21.8°C 82% 1.8 mph NE2.9 kmh NE 4.9 mph7.9 kmh 29.54 in1000.3 mb 0.00 in0.0 mm 0.00 in0.0 mm 0.00 in0.0 mm
12:15 AM 77.2°F25.1°C 71.0°F21.7°C 81% 2.8 mph E4.5 kmh E 7.4 mph11.9 kmh 29.54 in1000.3 mb 0.00 in0.0 mm 0.00 in0.0 mm 0.00 in0.0 mm
12:10 AM 77.2°F25.1°C 71.0°F21.7°C 81% 3.5 mph ENE5.6 kmh ENE 9.8 mph15.8 kmh 29.54 in1000.3 mb 0.00 in0.0 mm 0.00 in0.0 mm 0.00 in0.0 mm
12:05 AM 77.0°F25.0°C 71.0°F21.7°C 82% 1.5 mph NE2.4 kmh NE 4.9 mph7.9 kmh 29.54 in1000.3 mb 0.00 in0.0 mm 0.00 in0.0 mm 0.00 in0.0 mm
12:00 AM 76.6°F24.8°C 70.9°F21.6°C 82% 3.0 mph E4.8 kmh E 9.8 mph15.8 kmh 29.54 in1000.3 mb 0.00 in0.0 mm 0.00 in0.0 mm 0.00 in0.0 mm